createdAt,value
2023-03-28T00:01:25.710Z,69.17
2023-03-28T00:03:54.245Z,69.50
2023-03-28T00:06:21.876Z,69.25
2023-03-28T00:08:49.955Z,71.00
2023-03-28T00:11:19.599Z,69.38
2023-03-28T00:13:46.960Z,69.67
2023-03-28T00:16:14.374Z,70.19
2023-03-28T00:18:42.517Z,69.09
2023-03-28T00:21:23.485Z,68.42
2023-03-28T00:23:52.541Z,71.20
2023-03-28T00:26:20.016Z,70.12
2023-03-28T00:28:47.526Z,67.88
2023-03-28T00:31:15.510Z,66.70
2023-03-28T00:33:42.102Z,69.65
2023-03-28T00:36:10.400Z,70.41
2023-03-28T00:38:38.705Z,73.62
2023-03-28T00:41:05.865Z,70.29
2023-03-28T00:43:41.151Z,71.62
2023-03-28T00:46:14.713Z,70.50
2023-03-28T00:48:49.581Z,69.86
2023-03-28T00:51:19.532Z,68.88
2023-03-28T00:53:48.091Z,67.94
2023-03-28T00:56:19.208Z,70.33
2023-03-28T00:58:47.488Z,69.73
2023-03-28T01:01:15.927Z,68.48
2023-03-28T01:03:46.438Z,69.96
2023-03-28T01:06:16.519Z,69.62
2023-03-28T01:08:44.648Z,71.13
2023-03-28T01:11:13.783Z,69.72
2023-03-28T01:13:44.127Z,70.14
2023-03-28T01:16:12.701Z,68.54
2023-03-28T01:18:41.399Z,69.55
2023-03-28T01:21:39.866Z,69.30
2023-03-28T01:24:33.841Z,70.32
2023-03-28T01:27:07.480Z,69.96
2023-03-28T01:30:20.762Z,69.07
2023-03-28T01:33:06.784Z,70.04
2023-03-28T01:36:12.106Z,71.14
2023-03-28T01:39:06.146Z,72.27
2023-03-28T01:41:42.031Z,71.83
2023-03-28T01:44:17.113Z,71.23
2023-03-28T01:46:48.209Z,70.17
2023-03-28T01:49:23.789Z,71.31
2023-03-28T01:51:57.296Z,70.33
2023-03-28T01:54:31.338Z,70.12
2023-03-28T01:57:06.547Z,69.30
2023-03-28T01:59:37.726Z,68.29
2023-03-28T02:02:12.214Z,67.35
2023-03-28T02:04:41.965Z,67.67
2023-03-28T02:07:09.002Z,70.17
2023-03-28T02:09:41.998Z,70.66
2023-03-28T02:12:15.287Z,66.07
2023-03-28T02:14:45.246Z,69.15
2023-03-28T02:17:16.069Z,68.17
2023-03-28T02:19:48.089Z,71.27
2023-03-28T02:22:21.179Z,70.99
2023-03-28T02:24:51.791Z,70.09
2023-03-28T02:27:19.723Z,67.08
2023-03-28T02:29:47.887Z,70.93
2023-03-28T02:32:14.756Z,70.52
2023-03-28T02:34:42.366Z,66.04
2023-03-28T02:37:21.436Z,69.92
2023-03-28T02:40:00.965Z,70.29
2023-03-28T02:42:54.234Z,69.86
2023-03-28T02:45:52.852Z,66.33
2023-03-28T02:48:31.384Z,66.32
2023-03-28T02:51:12.292Z,65.95
2023-03-28T02:53:48.433Z,69.48
2023-03-28T02:56:21.892Z,70.10
2023-03-28T02:58:53.373Z,65.24
2023-03-28T03:01:20.985Z,70.12
2023-03-28T03:03:49.869Z,70.32
2023-03-28T03:06:17.872Z,71.59
2023-03-28T03:08:44.531Z,70.91
2023-03-28T03:11:11.046Z,69.09
2023-03-28T03:13:38.934Z,65.24
2023-03-28T03:16:06.370Z,70.51
2023-03-28T03:18:34.892Z,71.43
2023-03-28T03:21:01.725Z,69.07
2023-03-28T03:23:28.431Z,71.26
2023-03-28T03:25:54.994Z,70.56
2023-03-28T03:28:21.604Z,69.89
2023-03-28T03:30:51.161Z,69.61
2023-03-28T03:33:17.853Z,68.24
2023-03-28T03:35:45.939Z,70.81
2023-03-28T03:38:13.073Z,70.16
2023-03-28T03:40:40.336Z,70.13
2023-03-28T03:43:06.921Z,66.50
2023-03-28T03:45:33.532Z,67.47
2023-03-28T03:48:01.501Z,71.30
2023-03-28T03:50:28.123Z,71.69
2023-03-28T03:52:54.740Z,67.92
2023-03-28T03:55:21.276Z,66.30
2023-03-28T03:57:47.801Z,68.72
2023-03-28T04:00:15.165Z,72.46
2023-03-28T04:02:41.999Z,70.37
2023-03-28T04:05:10.288Z,71.89
2023-03-28T04:07:37.332Z,67.08
2023-03-28T04:10:04.194Z,68.15
2023-03-28T04:12:30.773Z,73.50
2023-03-28T04:14:57.421Z,67.38
2023-03-28T04:17:29.821Z,72.90
2023-03-28T04:19:56.895Z,66.20
2023-03-28T04:22:29.872Z,65.86
2023-03-28T04:24:56.877Z,72.04
2023-03-28T04:27:29.598Z,72.24
2023-03-28T04:29:56.144Z,71.02
2023-03-28T04:32:24.305Z,70.22
2023-03-28T04:34:51.000Z,70.16
2023-03-28T04:37:18.262Z,69.93
2023-03-28T04:39:47.748Z,68.03
2023-03-28T04:42:15.432Z,70.60
2023-03-28T04:44:42.343Z,69.89
2023-03-28T04:47:11.716Z,70.05
2023-03-28T04:49:38.850Z,71.03
2023-03-28T04:52:06.054Z,71.10
2023-03-28T04:54:33.728Z,71.68
2023-03-28T04:57:02.454Z,70.15
2023-03-28T04:59:29.489Z,70.04
2023-03-28T05:01:56.383Z,64.99
2023-03-28T05:04:24.122Z,71.73
2023-03-28T05:06:50.901Z,70.38
2023-03-28T05:09:17.794Z,69.60
2023-03-28T05:11:44.891Z,68.94
2023-03-28T05:14:12.839Z,69.22
2023-03-28T05:16:39.532Z,66.82
2023-03-28T05:19:06.625Z,71.37
2023-03-28T05:21:33.235Z,70.08
2023-03-28T05:23:59.798Z,69.98
2023-03-28T05:26:28.093Z,65.81
2023-03-28T05:28:54.701Z,69.90
2023-03-28T05:31:25.879Z,69.05
2023-03-28T05:33:52.586Z,69.64
2023-03-28T05:36:19.337Z,69.59
2023-03-28T05:38:46.237Z,69.57
2023-03-28T05:41:12.889Z,71.23
2023-03-28T05:43:39.478Z,68.82
2023-03-28T05:46:06.716Z,62.31
2023-03-28T05:48:34.659Z,71.70
2023-03-28T05:51:01.549Z,63.02
2023-03-28T05:53:28.323Z,67.73
2023-03-28T05:55:54.846Z,74.33
2023-03-28T05:58:21.381Z,70.99
2023-03-28T06:00:47.944Z,69.79
2023-03-28T06:03:16.552Z,70.30
2023-03-28T06:05:45.677Z,70.39
2023-03-28T06:08:12.255Z,70.10
2023-03-28T06:10:38.852Z,70.08
2023-03-28T06:13:05.571Z,69.73
2023-03-28T06:15:32.565Z,70.03
2023-03-28T06:17:59.489Z,70.04
2023-03-28T06:20:26.089Z,70.09
2023-03-28T06:22:53.960Z,64.44
2023-03-28T06:25:20.671Z,64.09
2023-03-28T06:27:47.312Z,64.54
2023-03-28T06:30:14.842Z,70.43
2023-03-28T06:32:41.422Z,70.27
2023-03-28T06:35:08.623Z,63.41
2023-03-28T06:37:35.352Z,66.80
2023-03-28T06:40:03.873Z,73.58
2023-03-28T06:42:30.931Z,65.05
2023-03-28T06:44:57.490Z,70.99
2023-03-28T06:47:24.082Z,69.97
2023-03-28T06:49:50.725Z,69.42
2023-03-28T06:52:17.436Z,70.06
2023-03-28T06:54:44.936Z,63.85
2023-03-28T06:57:14.035Z,67.98
2023-03-28T06:59:40.662Z,70.79
2023-03-28T07:02:07.377Z,71.03
2023-03-28T07:04:34.929Z,70.20
2023-03-28T07:07:01.938Z,69.77
2023-03-28T07:09:28.532Z,66.61
2023-03-28T07:11:55.230Z,66.56
2023-03-28T07:14:23.357Z,67.44
2023-03-28T07:16:49.957Z,67.34
2023-03-28T07:19:16.498Z,68.57
2023-03-28T07:21:43.154Z,65.54
2023-03-28T07:24:09.792Z,68.31
2023-03-28T07:26:36.330Z,69.72
2023-03-28T07:29:02.878Z,69.16
2023-03-28T07:31:31.040Z,65.80
2023-03-28T07:33:58.142Z,64.46
2023-03-28T07:36:27.591Z,66.00
2023-03-28T07:38:54.492Z,71.17
2023-03-28T07:41:22.600Z,63.96
2023-03-28T07:43:49.354Z,64.82
2023-03-28T07:46:16.407Z,68.71
2023-03-28T07:48:46.448Z,70.74
2023-03-28T07:51:13.989Z,70.60
2023-03-28T07:53:40.545Z,70.30
2023-03-28T07:56:11.749Z,65.89
2023-03-28T07:58:38.791Z,70.25
2023-03-28T08:01:06.629Z,69.99
2023-03-28T08:03:33.365Z,66.62
2023-03-28T08:06:02.743Z,69.33
2023-03-28T08:08:30.899Z,69.75
2023-03-28T08:10:57.813Z,68.01
2023-03-28T08:13:24.784Z,69.92
2023-03-28T08:15:55.009Z,64.70
2023-03-28T08:18:22.058Z,64.83
2023-03-28T08:20:48.787Z,67.77
2023-03-28T08:23:17.305Z,69.42
2023-03-28T08:25:44.360Z,69.64
2023-03-28T08:28:11.392Z,69.64
2023-03-28T08:30:37.978Z,65.59
2023-03-28T08:33:04.976Z,68.58
2023-03-28T08:35:31.637Z,67.45
2023-03-28T08:37:59.189Z,57.24
2023-03-28T08:40:28.907Z,65.24
2023-03-28T08:43:18.421Z,64.61
2023-03-28T08:45:51.876Z,61.86
2023-03-28T08:48:23.734Z,66.70
2023-03-28T08:50:54.319Z,58.46
2023-03-28T08:53:26.839Z,58.32
2023-03-28T08:55:57.443Z,67.02
2023-03-28T08:58:27.149Z,67.16
2023-03-28T09:00:53.853Z,69.22
2023-03-28T09:03:22.521Z,69.25
2023-03-28T09:05:52.568Z,58.00
2023-03-28T09:08:44.828Z,51.01
2023-03-28T09:11:30.083Z,57.11
2023-03-28T09:14:14.883Z,53.57
2023-03-28T09:17:00.603Z,64.00
2023-03-28T09:19:47.177Z,67.69
2023-03-28T09:22:26.938Z,68.02
2023-03-28T09:25:05.403Z,67.85
2023-03-28T09:27:35.506Z,67.68
2023-03-28T09:30:18.961Z,67.33
2023-03-28T09:32:49.691Z,60.43
2023-03-28T09:35:18.853Z,54.42
2023-03-28T09:37:48.866Z,59.95
2023-03-28T09:40:20.732Z,67.62
2023-03-28T09:42:57.051Z,62.63
2023-03-28T09:45:36.655Z,67.61
2023-03-28T09:48:04.963Z,60.08
2023-03-28T09:50:31.671Z,56.96
2023-03-28T09:52:58.649Z,64.06
2023-03-28T09:55:28.763Z,66.04
2023-03-28T09:58:08.266Z,62.87
2023-03-28T10:00:37.152Z,59.90
2023-03-28T10:03:04.957Z,65.80
2023-03-28T10:05:36.140Z,66.94
2023-03-28T10:08:05.830Z,67.58
2023-03-28T10:10:32.360Z,67.52
2023-03-28T10:13:03.673Z,68.76
2023-03-28T10:15:35.178Z,65.74
2023-03-28T10:18:04.852Z,68.57
2023-03-28T10:20:34.630Z,66.32
2023-03-28T10:23:04.386Z,64.03
2023-03-28T10:25:38.358Z,59.21
2023-03-28T10:28:07.117Z,54.91
2023-03-28T10:30:36.391Z,52.99
2023-03-28T10:33:22.904Z,65.39
2023-03-28T10:35:56.182Z,55.89
2023-03-28T10:38:25.029Z,65.56
2023-03-28T10:40:58.081Z,59.93
2023-03-28T10:43:31.639Z,57.75
2023-03-28T10:46:02.594Z,62.88
2023-03-28T10:48:31.538Z,64.40
2023-03-28T10:51:00.610Z,64.67
2023-03-28T10:53:35.529Z,65.48
2023-03-28T10:56:14.200Z,65.30
2023-03-28T10:58:47.037Z,62.95
2023-03-28T11:01:19.405Z,63.64
2023-03-28T11:04:04.907Z,52.91
2023-03-28T11:06:37.682Z,65.05
2023-03-28T11:09:16.479Z,63.98
2023-03-28T11:11:55.748Z,63.27
2023-03-28T11:14:37.784Z,66.85
2023-03-28T11:17:18.432Z,61.45
2023-03-28T11:20:02.078Z,63.32
2023-03-28T11:22:43.113Z,66.44
2023-03-28T11:25:21.821Z,65.87
2023-03-28T11:27:58.702Z,55.98
2023-03-28T11:30:30.630Z,54.41
2023-03-28T11:33:05.954Z,64.40
2023-03-28T11:35:37.886Z,65.23
2023-03-28T11:38:10.707Z,64.73
2023-03-28T11:40:46.975Z,65.39
2023-03-28T11:43:18.049Z,54.06
2023-03-28T11:45:52.625Z,63.95
2023-03-28T11:48:26.816Z,65.09
2023-03-28T11:51:02.703Z,58.33
2023-03-28T11:53:33.433Z,55.26
2023-03-28T11:56:06.717Z,60.26
2023-03-28T11:58:39.214Z,65.29
2023-03-28T12:01:09.815Z,61.86
2023-03-28T12:03:54.636Z,61.64
2023-03-28T12:06:27.148Z,64.88
2023-03-28T12:09:00.234Z,50.94
2023-03-28T12:11:35.546Z,47.22
2023-03-28T12:14:14.075Z,56.88
2023-03-28T12:16:46.774Z,64.42
2023-03-28T12:19:18.928Z,62.72
2023-03-28T12:21:51.235Z,51.53
2023-03-28T12:24:25.626Z,58.99
2023-03-28T12:27:02.422Z,62.96
2023-03-28T12:29:36.148Z,61.69
2023-03-28T12:32:17.448Z,54.40
2023-03-28T12:34:53.807Z,61.61
2023-03-28T12:37:25.005Z,65.56
2023-03-28T12:39:54.988Z,62.41
2023-03-28T12:42:24.684Z,56.31
2023-03-28T12:44:54.745Z,64.19
2023-03-28T12:47:26.341Z,66.35
2023-03-28T12:49:58.026Z,64.57
2023-03-28T12:52:28.329Z,65.50
2023-03-28T12:55:00.830Z,57.22
2023-03-28T12:57:43.828Z,65.21
2023-03-28T13:00:26.651Z,63.09
2023-03-28T13:03:07.955Z,63.84
2023-03-28T13:05:46.254Z,63.40
2023-03-28T13:08:18.579Z,63.60
2023-03-28T13:11:04.620Z,62.42
2023-03-28T13:13:38.911Z,61.68
2023-03-28T13:16:12.968Z,55.22
2023-03-28T13:18:47.725Z,63.88
2023-03-28T13:21:43.804Z,65.23
2023-03-28T13:24:31.135Z,59.09
2023-03-28T13:26:59.596Z,66.31
2023-03-28T13:29:45.132Z,67.99
2023-03-28T13:32:15.351Z,67.70
2023-03-28T13:34:47.548Z,59.22
2023-03-28T13:37:24.080Z,56.67
2023-03-28T13:39:52.553Z,55.16
2023-03-28T13:42:27.915Z,62.87
2023-03-28T13:44:57.489Z,62.24
2023-03-28T13:47:30.706Z,63.90
2023-03-28T13:50:01.314Z,52.93
2023-03-28T13:52:29.182Z,53.75
2023-03-28T13:55:04.655Z,59.20
2023-03-28T13:57:31.619Z,52.28
2023-03-28T14:00:00.334Z,50.61
2023-03-28T14:02:38.591Z,58.25
2023-03-28T14:05:14.318Z,52.81
2023-03-28T14:07:42.307Z,53.54
2023-03-28T14:10:29.882Z,52.20
2023-03-28T14:13:00.422Z,52.01
2023-03-28T14:15:30.503Z,51.60
2023-03-28T14:17:59.103Z,54.97
2023-03-28T14:20:26.777Z,58.84
2023-03-28T14:23:00.339Z,51.09
2023-03-28T14:25:29.176Z,51.08
2023-03-28T14:27:57.112Z,52.72
2023-03-28T14:30:26.796Z,53.41
2023-03-28T14:32:58.844Z,58.81
2023-03-28T14:35:27.966Z,54.39
2023-03-28T14:37:57.790Z,50.51
2023-03-28T14:40:33.702Z,54.20
2023-03-28T14:43:02.703Z,52.35
2023-03-28T14:45:30.752Z,51.72
2023-03-28T14:47:58.229Z,51.96
2023-03-28T14:50:30.328Z,61.26
2023-03-28T14:53:02.975Z,53.08
2023-03-28T14:55:31.329Z,52.03
2023-03-28T14:57:59.726Z,53.31
2023-03-28T15:00:34.989Z,52.03
2023-03-28T15:03:04.801Z,53.48
2023-03-28T15:05:31.736Z,54.94
2023-03-28T15:08:02.259Z,57.83
2023-03-28T15:10:30.220Z,64.87
2023-03-28T15:13:04.579Z,56.79
2023-03-28T15:15:33.537Z,52.92
2023-03-28T15:18:06.079Z,54.26
2023-03-28T15:20:35.544Z,55.50
2023-03-28T15:23:06.766Z,52.75
2023-03-28T15:25:35.372Z,54.06
2023-03-28T15:28:06.502Z,52.63
2023-03-28T15:30:35.394Z,52.74
2023-03-28T15:33:05.019Z,65.20
2023-03-28T15:35:32.927Z,67.48
2023-03-28T15:38:01.423Z,67.92
2023-03-28T15:40:36.020Z,67.26
2023-03-28T15:43:03.095Z,68.44
2023-03-28T15:45:41.993Z,68.30
2023-03-28T15:48:18.060Z,68.56
2023-03-28T15:50:50.075Z,68.38
2023-03-28T15:53:17.869Z,68.45
2023-03-28T15:55:47.547Z,69.19
2023-03-28T15:58:14.777Z,68.52
2023-03-28T16:00:44.650Z,68.82
2023-03-28T16:03:25.783Z,68.92
2023-03-28T16:05:59.693Z,67.20
2023-03-28T16:08:34.709Z,68.85
2023-03-28T16:11:05.160Z,68.82
2023-03-28T16:13:33.963Z,68.84
2023-03-28T16:16:01.103Z,67.54
2023-03-28T16:18:27.908Z,66.48
2023-03-28T16:20:54.416Z,66.20
2023-03-28T16:23:21.056Z,66.65
2023-03-28T16:25:47.664Z,66.81
2023-03-28T16:28:20.831Z,67.36
2023-03-28T16:30:47.498Z,67.05
2023-03-28T16:33:14.196Z,67.50
2023-03-28T16:35:41.097Z,67.05
2023-03-28T16:38:07.854Z,67.52
2023-03-28T16:40:34.483Z,67.46
2023-03-28T16:43:01.320Z,67.57
2023-03-28T16:45:30.473Z,67.32
2023-03-28T16:47:57.405Z,67.84
2023-03-28T16:50:24.052Z,67.87
2023-03-28T16:52:50.760Z,67.63
2023-03-28T16:55:18.502Z,68.17
2023-03-28T16:57:45.234Z,68.12
2023-03-28T17:00:17.653Z,67.99
2023-03-28T17:02:46.061Z,68.15
2023-03-28T17:05:13.095Z,68.16
2023-03-28T17:07:39.770Z,68.65
2023-03-28T17:10:08.540Z,68.65
2023-03-28T17:12:35.671Z,68.14
2023-03-28T17:15:02.217Z,68.50
2023-03-28T17:17:28.775Z,68.35
2023-03-28T17:19:56.698Z,68.46
2023-03-28T17:22:23.567Z,67.84
2023-03-28T17:24:50.841Z,67.54
2023-03-28T17:27:17.543Z,67.73
2023-03-28T17:29:44.207Z,67.73
2023-03-28T17:32:11.050Z,68.28
2023-03-28T17:34:38.015Z,68.10
2023-03-28T17:37:05.928Z,68.04
2023-03-28T17:39:32.626Z,68.35
2023-03-28T17:41:59.186Z,68.31
2023-03-28T17:44:26.157Z,68.21
2023-03-28T17:46:54.319Z,67.87
2023-03-28T17:49:22.463Z,67.93
2023-03-28T17:51:50.276Z,62.72
2023-03-28T17:54:18.252Z,73.14
2023-03-28T17:56:44.871Z,65.63
2023-03-28T17:59:12.348Z,68.77
2023-03-28T18:01:39.463Z,69.54
2023-03-28T18:04:06.317Z,71.47
2023-03-28T18:06:33.704Z,69.69
2023-03-28T18:09:00.256Z,69.95
2023-03-28T18:11:28.378Z,69.05
2023-03-28T18:13:57.145Z,68.28
2023-03-28T18:16:23.858Z,68.80
2023-03-28T18:18:50.595Z,68.55
2023-03-28T18:21:17.272Z,68.94
2023-03-28T18:23:43.845Z,68.26
2023-03-28T18:26:10.527Z,68.63
2023-03-28T18:28:38.446Z,68.56
2023-03-28T18:31:10.077Z,68.66
2023-03-28T18:33:36.796Z,68.57
2023-03-28T18:36:04.042Z,68.42
2023-03-28T18:38:36.756Z,68.12
2023-03-28T18:41:03.933Z,68.14
2023-03-28T18:43:31.209Z,68.64
2023-03-28T18:46:00.970Z,68.28
2023-03-28T18:48:30.491Z,67.82
2023-03-28T18:50:58.216Z,68.48
2023-03-28T18:53:25.127Z,68.52
2023-03-28T18:55:54.674Z,68.33
2023-03-28T18:58:23.711Z,68.33
2023-03-28T19:08:26.239Z,68.45
2023-03-28T19:14:39.665Z,68.18
2023-03-28T19:17:07.194Z,68.12
2023-03-28T19:19:37.330Z,67.55
2023-03-28T19:22:05.295Z,67.77
2023-03-28T19:24:33.621Z,69.46
2023-03-28T19:27:01.508Z,67.91
2023-03-28T19:29:32.032Z,70.57
2023-03-28T19:31:58.715Z,68.81
2023-03-28T19:34:25.353Z,68.37
2023-03-28T19:36:51.954Z,68.04
2023-03-28T19:39:18.723Z,68.33
2023-03-28T19:41:46.742Z,67.83
2023-03-28T19:44:13.404Z,64.50
2023-03-28T19:46:40.035Z,70.36
2023-03-28T19:49:06.864Z,69.49
2023-03-28T19:51:34.259Z,68.11
2023-03-28T19:54:01.062Z,67.17
2023-03-28T19:56:27.896Z,67.75
2023-03-28T19:58:56.034Z,67.86
2023-03-28T20:36:01.149Z,71.56
2023-03-28T20:38:27.841Z,69.10
2023-03-28T20:40:54.446Z,68.46
2023-03-28T20:43:21.173Z,68.61
2023-03-28T20:45:53.503Z,67.77
2023-03-28T20:48:21.859Z,68.30
2023-03-28T20:50:48.727Z,68.28
2023-03-28T20:53:17.073Z,68.33
2023-03-28T20:55:43.707Z,67.71
2023-03-28T20:58:10.275Z,67.89
2023-03-28T21:00:36.835Z,68.07
2023-03-28T21:03:03.694Z,68.27
2023-03-28T21:05:31.127Z,68.11
2023-03-28T21:07:59.120Z,68.16
2023-03-28T21:10:27.918Z,67.74
2023-03-28T21:12:54.466Z,67.85
2023-03-28T21:15:21.036Z,68.29
2023-03-28T21:17:49.483Z,67.63
2023-03-28T21:20:18.685Z,67.91
2023-03-28T21:22:45.636Z,67.10
2023-03-28T21:25:12.195Z,67.41
2023-03-28T21:27:40.133Z,67.78
2023-03-28T21:30:08.393Z,67.82
2023-03-28T21:32:35.845Z,67.81
2023-03-28T21:35:03.998Z,67.06
2023-03-28T21:37:31.175Z,69.99
2023-03-28T21:39:57.870Z,67.93
2023-03-28T21:42:24.822Z,68.28
2023-03-28T21:44:52.762Z,67.71
2023-03-28T21:47:19.348Z,67.95
2023-03-28T21:49:46.050Z,68.24
2023-03-28T21:52:13.125Z,65.48
2023-03-28T21:54:40.280Z,65.16
2023-03-28T21:57:06.970Z,70.81
2023-03-28T21:59:33.618Z,68.86
2023-03-28T22:02:01.673Z,67.40
2023-03-28T22:04:28.398Z,68.08
2023-03-28T22:06:55.660Z,67.44
2023-03-28T22:09:22.301Z,68.17
2023-03-28T22:11:48.966Z,68.51
2023-03-28T22:14:15.593Z,67.89
2023-03-28T22:16:42.582Z,68.59
2023-03-28T22:19:11.304Z,68.24
2023-03-28T22:21:37.975Z,65.04
2023-03-28T22:24:10.128Z,68.79
2023-03-28T22:26:36.713Z,67.74
2023-03-28T22:29:03.361Z,68.69
2023-03-28T22:31:30.016Z,68.05
2023-03-28T22:33:56.923Z,68.40
2023-03-28T22:36:24.852Z,69.43
2023-03-28T22:38:51.899Z,67.76
2023-03-28T22:41:18.468Z,68.39
2023-03-28T22:43:45.055Z,68.48
2023-03-28T22:46:16.475Z,67.58
2023-03-28T22:48:43.310Z,70.32
2023-03-28T22:51:12.944Z,71.81
2023-03-28T22:53:40.900Z,71.45
2023-03-28T22:56:08.516Z,72.31
2023-03-28T22:58:35.831Z,69.27
2023-03-28T23:01:03.929Z,69.51
2023-03-28T23:03:31.088Z,69.10
2023-03-28T23:06:01.589Z,68.83
2023-03-28T23:08:28.362Z,68.67
2023-03-28T23:10:56.245Z,67.46
2023-03-28T23:13:22.824Z,68.60
2023-03-28T23:15:49.400Z,70.55
2023-03-28T23:18:16.405Z,70.40
2023-03-28T23:20:43.625Z,68.44
2023-03-28T23:23:11.986Z,71.07
2023-03-28T23:25:39.069Z,73.77
2023-03-28T23:28:06.950Z,69.90
2023-03-28T23:30:33.555Z,65.33
2023-03-28T23:33:00.248Z,71.26
2023-03-28T23:35:26.875Z,69.14
2023-03-28T23:37:53.441Z,70.00
2023-03-28T23:40:20.582Z,65.09
2023-03-28T23:42:47.179Z,70.32
2023-03-28T23:45:15.846Z,67.88
2023-03-28T23:47:42.642Z,68.34
2023-03-28T23:50:11.888Z,63.43
2023-03-28T23:52:38.734Z,59.58
2023-03-28T23:55:07.846Z,60.71
2023-03-28T23:57:34.717Z,67.98
